Time;durP1;ratioP1;P1;durP2;ratioP2;P2;SDS_P1;SDS_P2;PMS_P1;PMS_P2;Temp;Humidity;BMP_temperature;BMP_pressure;BME280_temperature;BME280_humidity;BME280_pressure;Samples;Min_cycle;Max_cycle;Signal;HPM_P1;HPM_P2
2021/07/04 00:01:47;;;;;;;6.62;4.25;;;;;;;25.74;53.96;99956.50;4360255;32;20157;-73
2021/07/04 00:04:13;;;;;;;8.13;4.45;;;;;;;25.74;54.13;99950.72;4365983;32;20792;-72
2021/07/04 00:06:38;;;;;;;8.02;4.00;;;;;;;25.83;54.30;99938.69;4367720;32;20140;-75
2021/07/04 00:09:04;;;;;;;8.55;4.12;;;;;;;25.86;54.38;99940.47;4368426;32;20092;-73
2021/07/04 00:11:30;;;;;;;6.57;4.07;;;;;;;25.81;53.86;99950.78;4368564;32;20066;-73
2021/07/04 00:13:56;;;;;;;6.32;4.10;;;;;;;25.71;53.61;99952.59;4365851;32;20043;-72
2021/07/04 00:16:22;;;;;;;6.15;3.78;;;;;;;25.69;53.36;99942.97;4370048;32;20077;-72
2021/07/04 00:18:48;;;;;;;8.02;4.07;;;;;;;25.68;52.68;99950.84;4367494;32;20043;-74
2021/07/04 00:21:14;;;;;;;8.60;4.40;;;;;;;25.60;53.15;99946.34;4349256;32;20182;-73
2021/07/04 00:23:40;;;;;;;8.45;4.90;;;;;;;25.51;53.42;99944.75;4369193;32;20074;-71
2021/07/04 00:26:06;;;;;;;6.03;3.90;;;;;;;25.62;52.98;99940.81;4367253;32;20030;-73
2021/07/04 00:28:32;;;;;;;5.40;3.90;;;;;;;25.77;52.78;99938.06;4367564;32;20035;-73
2021/07/04 00:30:59;;;;;;;9.02;4.35;;;;;;;25.56;52.91;99938.09;4365269;32;20112;-75
2021/07/04 00:33:25;;;;;;;6.72;3.90;;;;;;;25.27;53.47;99945.81;4368001;32;20090;-72
2021/07/04 00:35:51;;;;;;;13.07;4.15;;;;;;;25.44;53.05;99948.34;4368377;32;20455;-75
2021/07/04 00:38:17;;;;;;;7.40;3.78;;;;;;;25.56;53.09;99935.19;4367885;32;20480;-75
2021/07/04 00:40:43;;;;;;;7.32;4.20;;;;;;;25.31;53.17;99940.50;4367982;32;20717;-75
2021/07/04 00:43:10;;;;;;;10.75;3.50;;;;;;;25.00;53.21;99929.94;4368093;32;20055;-72
2021/07/04 00:45:35;;;;;;;6.15;3.25;;;;;;;24.97;53.03;99939.69;4368041;32;20057;-76
2021/07/04 00:48:02;;;;;;;6.07;3.90;;;;;;;24.94;53.14;99937.94;4367979;32;20047;-75
2021/07/04 00:50:30;;;;;;;8.02;3.40;;;;;;;25.05;52.81;99931.94;4367400;32;20038;-76
2021/07/04 00:52:57;;;;;;;7.72;3.87;;;;;;;24.96;52.47;99928.75;4368041;32;20043;-75
2021/07/04 00:55:24;;;;;;;4.60;3.42;;;;;;;24.96;52.89;99928.75;4368649;32;20105;-74
2021/07/04 00:57:50;;;;;;;7.00;3.58;;;;;;;24.70;53.28;99920.19;4367197;32;20446;-74
2021/07/04 01:00:19;;;;;;;6.72;3.50;;;;;;;24.73;53.09;99913.31;4367233;32;20090;-75
2021/07/04 01:02:45;;;;;;;6.10;3.80;;;;;;;24.73;52.98;99913.31;4366239;32;20154;-73
2021/07/04 01:05:14;;;;;;;5.50;3.47;;;;;;;24.65;52.75;99915.31;4366201;32;20513;-72
2021/07/04 01:07:40;;;;;;;9.98;3.85;;;;;;;24.67;52.98;99912.66;4367819;32;20034;-73
2021/07/04 01:10:13;;;;;;;6.72;3.62;;;;;;;24.51;53.34;99914.53;4367075;32;20382;-75
2021/07/04 01:12:41;;;;;;;11.05;6.35;;;;;;;24.73;52.71;99916.19;4366347;32;20670;-73
2021/07/04 01:15:08;;;;;;;5.43;3.47;;;;;;;24.68;53.18;99926.50;4366816;32;20039;-74
2021/07/04 01:17:37;;;;;;;4.97;3.55;;;;;;;24.54;53.11;99916.28;4369058;32;20507;-74
2021/07/04 01:20:07;;;;;;;7.47;3.15;;;;;;;24.85;52.37;99911.75;4366737;32;20568;-74
2021/07/04 01:22:35;;;;;;;7.45;3.33;;;;;;;24.68;52.75;99912.09;4366875;32;20090;-74
2021/07/04 01:25:02;;;;;;;6.90;4.35;;;;;;;24.51;52.67;99917.41;4366772;32;20039;-73
2021/07/04 01:27:27;;;;;;;8.98;4.18;;;;;;;24.63;52.63;99907.22;4364926;32;20077;-73
2021/07/04 01:29:53;;;;;;;10.25;3.40;;;;;;;24.64;52.31;99902.25;4366971;32;20080;-73
2021/07/04 01:32:18;;;;;;;5.72;3.67;;;;;;;24.75;52.01;99907.75;4367953;32;20043;-75
2021/07/04 01:34:44;;;;;;;4.70;3.10;;;;;;;24.65;52.03;99893.06;4365947;32;20086;-73
2021/07/04 01:37:10;;;;;;;8.13;3.90;;;;;;;24.94;51.88;99891.88;4367600;32;20069;-74
2021/07/04 01:39:35;;;;;;;9.18;3.45;;;;;;;25.00;51.24;99892.53;4365953;32;20411;-75
2021/07/04 01:42:01;;;;;;;6.82;3.53;;;;;;;24.88;51.60;99894.13;4367121;32;20074;-74
2021/07/04 01:44:27;;;;;;;3.97;2.83;;;;;;;24.73;51.60;99896.81;4366479;32;20572;-75
2021/07/04 01:46:53;;;;;;;9.93;3.35;;;;;;;24.76;51.66;99900.69;4368927;32;20062;-74
2021/07/04 01:49:19;;;;;;;5.43;3.35;;;;;;;24.53;51.59;99893.84;4365729;32;20108;-74
2021/07/04 01:51:44;;;;;;;11.60;3.53;;;;;;;24.65;51.44;99889.41;4366561;32;20170;-73
2021/07/04 01:54:12;;;;;;;11.85;3.40;;;;;;;24.69;51.53;99893.50;4365940;32;20078;-73
2021/07/04 01:56:38;;;;;;;5.43;3.00;;;;;;;24.87;51.00;99872.44;4367342;32;20097;-73
2021/07/04 01:59:04;;;;;;;6.87;3.28;;;;;;;25.03;50.77;99877.03;4364809;32;20086;-74
2021/07/04 02:01:30;;;;;;;6.05;2.90;;;;;;;24.89;50.91;99878.41;4365810;32;20051;-73
2021/07/04 02:03:56;;;;;;;5.78;3.20;;;;;;;24.87;51.33;99877.41;4370161;32;20047;-75
2021/07/04 02:06:21;;;;;;;7.78;3.08;;;;;;;24.72;51.27;99868.59;4370071;32;20035;-74
2021/07/04 02:08:47;;;;;;;5.07;2.83;;;;;;;24.84;51.33;99867.00;4369876;32;20106;-76
2021/07/04 02:11:13;;;;;;;6.47;3.30;;;;;;;24.84;51.42;99867.78;4368872;32;20125;-74
2021/07/04 02:13:38;;;;;;;4.28;2.80;;;;;;;25.09;51.20;99869.03;4367616;32;20166;-74
2021/07/04 02:16:05;;;;;;;7.72;2.90;;;;;;;24.83;51.35;99863.37;4369240;32;20105;-74
2021/07/04 02:18:30;;;;;;;9.25;3.25;;;;;;;25.07;50.94;99873.81;4369780;32;20412;-74
2021/07/04 02:20:57;;;;;;;5.43;2.87;;;;;;;24.92;51.29;99865.78;4367550;32;20411;-74
2021/07/04 02:26:03;;;;;;;8.48;3.65;;;;;;;25.32;50.62;99857.75;3981362;32;15076143;-74
2021/07/04 02:28:29;;;;;;;7.65;3.95;;;;;;;25.32;50.62;99857.75;4438379;32;20033;-74
2021/07/04 02:30:57;;;;;;;12.82;5.10;;;;;;;24.73;51.47;99859.41;4437777;32;20095;-74
2021/07/04 02:33:24;;;;;;;6.22;3.50;;;;;;;24.85;51.25;99857.81;4439101;32;20122;-73
2021/07/04 02:35:53;;;;;;;6.57;3.85;;;;;;;24.77;51.03;99859.06;4440149;32;20037;-75
2021/07/04 02:38:19;;;;;;;9.57;4.12;;;;;;;24.90;51.10;99861.91;4433320;32;20354;-75
2021/07/04 02:40:46;;;;;;;11.60;3.75;;;;;;;24.86;51.39;99852.84;4436404;32;20101;-75
2021/07/04 02:43:15;;;;;;;9.57;3.67;;;;;;;24.93;51.27;99857.91;4440029;32;20094;-74
2021/07/04 02:45:41;;;;;;;5.75;3.70;;;;;;;25.09;51.02;99857.50;4437910;32;20030;-74
2021/07/04 02:48:09;;;;;;;6.22;3.78;;;;;;;24.95;51.56;99858.88;4438071;32;20463;-73
2021/07/04 02:50:35;;;;;;;6.12;3.60;;;;;;;25.01;51.11;99861.66;4436877;32;20069;-74
2021/07/04 02:53:01;;;;;;;5.35;3.53;;;;;;;25.02;50.96;99872.59;4436027;32;20038;-74
2021/07/04 02:55:27;;;;;;;6.30;3.67;;;;;;;24.98;50.54;99863.50;4439180;32;20583;-75
2021/07/04 02:57:53;;;;;;;5.10;3.55;;;;;;;25.15;50.38;99869.66;4439097;32;20095;-75
2021/07/04 03:00:22;;;;;;;7.65;3.92;;;;;;;25.15;50.50;99871.75;4433771;32;20080;-75
2021/07/04 03:02:48;;;;;;;9.65;4.20;;;;;;;25.40;50.14;99857.84;4423117;32;21077;-75
2021/07/04 03:05:14;;;;;;;4.12;3.17;;;;;;;25.10;50.55;99855.41;4424374;32;20191;-73
2021/07/04 03:07:40;;;;;;;10.13;3.65;;;;;;;25.24;50.81;99859.75;4420282;32;20074;-76
2021/07/04 03:10:09;;;;;;;6.00;3.53;;;;;;;25.11;50.55;99854.84;4424762;32;20074;-76
2021/07/04 03:12:34;;;;;;;6.05;3.33;;;;;;;25.23;50.68;99850.38;4422096;32;20029;-75
2021/07/04 03:15:00;;;;;;;7.72;3.22;;;;;;;24.99;50.28;99853.56;4423587;32;20069;-75
2021/07/04 03:17:26;;;;;;;6.93;3.25;;;;;;;25.19;50.38;99852.03;4420407;32;20387;-75
2021/07/04 03:19:52;;;;;;;9.25;3.85;;;;;;;25.31;50.02;99847.53;4425106;32;20042;-74
2021/07/04 03:22:18;;;;;;;9.55;3.95;;;;;;;25.35;49.75;99845.88;4422939;32;20125;-74
2021/07/04 03:24:43;;;;;;;8.20;3.75;;;;;;;25.15;50.18;99848.72;4421834;32;20105;-75
2021/07/04 03:27:09;;;;;;;5.20;3.45;;;;;;;24.96;50.65;99842.38;4420634;32;20385;-73
2021/07/04 03:29:36;;;;;;;8.98;3.75;;;;;;;24.97;50.37;99841.06;4425460;32;20132;-75
2021/07/04 03:32:03;;;;;;;7.78;3.97;;;;;;;24.88;50.52;99842.31;4419895;32;20098;-75
2021/07/04 03:34:29;;;;;;;10.88;3.58;;;;;;;24.71;50.68;99839.06;4425522;32;20392;-74
2021/07/04 03:36:55;;;;;;;6.87;3.62;;;;;;;24.61;50.79;99837.19;4416185;32;20073;-75
2021/07/04 03:39:21;;;;;;;7.37;3.75;;;;;;;24.73;50.55;99839.25;4413302;32;21571;-74
2021/07/04 03:41:48;;;;;;;7.97;3.83;;;;;;;24.68;50.88;99839.41;4412201;32;20417;-74
2021/07/04 03:44:13;;;;;;;6.22;3.65;;;;;;;24.56;51.11;99840.94;4407535;32;20090;-74
2021/07/04 03:46:40;;;;;;;6.12;3.62;;;;;;;24.54;51.12;99841.50;4413693;32;20075;-74
2021/07/04 03:49:05;;;;;;;9.65;3.70;;;;;;;24.43;51.24;99833.13;4414338;32;20109;-76
2021/07/04 03:51:31;;;;;;;5.80;3.90;;;;;;;24.44;50.97;99848.28;4411591;32;20026;-75
2021/07/04 03:53:57;;;;;;;7.97;4.47;;;;;;;24.50;50.64;99841.06;4411266;32;20038;-74
2021/07/04 03:56:23;;;;;;;8.10;4.35;;;;;;;24.32;51.18;99844.09;4414987;32;20030;-75
2021/07/04 03:58:49;;;;;;;6.37;4.00;;;;;;;24.34;51.19;99850.84;4412769;32;20362;-74
2021/07/04 04:01:19;;;;;;;9.65;4.20;;;;;;;24.20;51.48;99851.41;4411451;32;20010;-73
2021/07/04 04:03:48;;;;;;;6.87;4.25;;;;;;;24.19;51.55;99852.72;4412339;32;20089;-75
2021/07/04 04:06:14;;;;;;;7.87;4.75;;;;;;;24.32;51.42;99853.50;4415744;32;20038;-74
2021/07/04 04:08:41;;;;;;;13.43;4.95;;;;;;;24.28;51.41;99855.94;4413082;32;20071;-76
2021/07/04 04:11:07;;;;;;;10.70;4.65;;;;;;;24.39;51.44;99867.19;4412085;32;20215;-75
2021/07/04 04:13:33;;;;;;;8.88;4.85;;;;;;;24.36;51.46;99856.78;4411492;32;20390;-76
2021/07/04 04:15:59;;;;;;;9.45;4.97;;;;;;;24.34;51.53;99868.09;4412116;32;20093;-74
2021/07/04 04:18:25;;;;;;;12.82;5.07;;;;;;;24.43;51.53;99859.03;4410155;32;20038;-75
2021/07/04 04:20:51;;;;;;;9.60;5.35;;;;;;;24.48;51.49;99860.22;4411859;32;20164;-76
2021/07/04 04:23:16;;;;;;;11.38;5.87;;;;;;;24.44;51.09;99872.06;4412543;32;20034;-75
2021/07/04 04:25:42;;;;;;;9.35;5.95;;;;;;;24.47;51.43;99861.53;4412022;32;20356;-74
2021/07/04 04:28:09;;;;;;;11.20;6.03;;;;;;;24.40;51.21;99865.88;4412267;32;20121;-75
2021/07/04 04:30:35;;;;;;;13.98;6.87;;;;;;;24.56;50.77;99870.50;4408607;32;20048;-75
2021/07/04 04:33:03;;;;;;;11.82;6.37;;;;;;;24.85;50.48;99871.44;4409364;32;20463;-76
2021/07/04 04:35:28;;;;;;;10.82;6.05;;;;;;;24.65;50.84;99872.94;4408000;32;20098;-75
2021/07/04 04:37:55;;;;;;;12.68;6.43;;;;;;;24.78;50.81;99872.91;4412754;32;20042;-74
2021/07/04 04:40:20;;;;;;;12.20;6.57;;;;;;;24.86;50.38;99870.13;4413015;32;20068;-74
2021/07/04 04:42:46;;;;;;;9.30;6.30;;;;;;;24.97;50.41;99872.72;4410517;32;20429;-74
2021/07/04 04:45:12;;;;;;;11.18;5.45;;;;;;;25.09;49.78;99869.03;4411400;32;20433;-73
2021/07/04 04:47:38;;;;;;;10.50;6.20;;;;;;;25.21;49.38;99864.53;4409881;32;20022;-76
2021/07/04 04:50:05;;;;;;;11.20;6.10;;;;;;;25.11;49.43;99872.13;4413466;32;20030;-74
2021/07/04 04:52:31;;;;;;;9.48;6.37;;;;;;;25.51;49.08;99866.16;4411954;32;20034;-75
2021/07/04 04:54:57;;;;;;;13.27;6.50;;;;;;;25.37;48.95;99861.84;4412625;32;20045;-72
2021/07/04 04:57:23;;;;;;;9.25;6.20;;;;;;;25.47;48.71;99865.75;4406051;32;20581;-74
2021/07/04 04:59:49;;;;;;;10.38;6.30;;;;;;;25.65;49.08;99856.91;4413862;32;20532;-73
2021/07/04 05:02:14;;;;;;;11.52;5.97;;;;;;;25.60;48.44;99866.47;4409586;32;20078;-73
2021/07/04 05:04:40;;;;;;;10.20;5.72;;;;;;;25.66;48.49;99864.19;4413653;32;20068;-73
2021/07/04 05:07:07;;;;;;;11.40;6.50;;;;;;;25.66;48.36;99861.31;4411906;32;20428;-74
2021/07/04 05:09:33;;;;;;;9.68;5.78;;;;;;;25.78;48.37;99859.69;4411359;32;20034;-74
2021/07/04 05:11:58;;;;;;;10.70;7.00;;;;;;;25.82;48.28;99857.22;4411512;32;20034;-75
2021/07/04 05:14:24;;;;;;;12.68;6.57;;;;;;;25.96;47.76;99863.66;4410149;32;20535;-73
2021/07/04 05:16:50;;;;;;;10.77;6.32;;;;;;;25.86;47.72;99859.75;4410146;32;20477;-75
2021/07/04 05:19:15;;;;;;;12.70;6.53;;;;;;;25.97;47.88;99853.66;4412541;32;20069;-74
2021/07/04 05:21:41;;;;;;;15.27;6.55;;;;;;;26.16;47.49;99851.31;4411104;32;20048;-74
2021/07/04 05:24:09;;;;;;;9.85;5.60;;;;;;;26.24;47.70;99852.12;4407538;32;20017;-73
2021/07/04 05:26:35;;;;;;;12.20;6.10;;;;;;;26.37;47.18;99857.75;4413686;32;20096;-75
2021/07/04 05:29:01;;;;;;;8.52;6.15;;;;;;;26.62;47.11;99856.75;4411723;32;20073;-75
2021/07/04 05:31:27;;;;;;;9.93;6.20;;;;;;;26.90;46.40;99853.00;4410693;32;20050;-73
2021/07/04 05:33:55;;;;;;;9.35;6.00;;;;;;;26.99;46.03;99850.34;4410831;32;20069;-73
2021/07/04 05:36:21;;;;;;;9.38;5.90;;;;;;;26.69;46.47;99849.50;4411170;32;20086;-75
2021/07/04 05:38:47;;;;;;;9.93;5.37;;;;;;;26.80;46.87;99849.13;4413432;32;20571;-73
2021/07/04 05:41:14;;;;;;;9.23;5.47;;;;;;;27.05;46.26;99841.47;4411098;32;20359;-74
2021/07/04 05:43:44;;;;;;;8.25;5.50;;;;;;;27.14;45.67;99861.94;4410970;32;20467;-74
2021/07/04 05:46:11;;;;;;;7.35;4.95;;;;;;;27.54;45.71;99849.84;4410115;32;20102;-74
2021/07/04 05:48:39;;;;;;;8.50;4.60;;;;;;;27.51;45.53;99848.87;4411685;32;20039;-74
2021/07/04 05:51:05;;;;;;;8.70;3.55;;;;;;;27.56;44.66;99847.94;4406591;32;20079;-73
2021/07/04 05:53:30;;;;;;;6.75;3.40;;;;;;;27.45;44.63;99850.44;4411256;32;20475;-73
2021/07/04 05:55:56;;;;;;;6.30;2.90;;;;;;;27.54;43.91;99849.84;4410635;32;20091;-74
2021/07/04 05:58:22;;;;;;;7.80;3.67;;;;;;;27.58;43.44;99845.22;4412639;32;20038;-74
2021/07/04 06:00:48;;;;;;;6.05;3.33;;;;;;;27.63;43.21;99832.69;4410403;32;20156;-74
2021/07/04 06:03:14;;;;;;;4.75;2.87;;;;;;;27.93;42.43;99840.59;4402846;32;20068;-75
2021/07/04 06:05:40;;;;;;;4.97;3.35;;;;;;;27.67;43.03;99835.97;4409134;32;20042;-75
2021/07/04 06:08:06;;;;;;;5.07;2.90;;;;;;;27.95;42.95;99835.75;4412441;32;20062;-73
2021/07/04 06:10:32;;;;;;;4.20;2.85;;;;;;;27.90;42.85;99836.75;4409684;32;20070;-74
2021/07/04 06:12:58;;;;;;;6.20;3.15;;;;;;;28.23;42.16;99838.41;4407073;32;20058;-75
2021/07/04 06:15:24;;;;;;;9.70;3.35;;;;;;;28.23;41.74;99841.31;4410355;32;20042;-74
2021/07/04 06:17:50;;;;;;;5.87;3.03;;;;;;;28.49;41.49;99832.16;4412784;32;20082;-74
2021/07/04 06:20:17;;;;;;;4.80;3.10;;;;;;;28.65;41.28;99827.06;4410039;32;20433;-75
2021/07/04 06:22:44;;;;;;;5.05;3.12;;;;;;;29.03;40.77;99830.53;4411506;32;20033;-75
2021/07/04 06:25:11;;;;;;;5.93;3.17;;;;;;;28.84;41.34;99836.81;4408495;32;20386;-76
2021/07/04 06:27:39;;;;;;;6.47;3.53;;;;;;;29.25;41.22;99832.53;4411279;32;20158;-74
2021/07/04 06:30:08;;;;;;;8.77;3.83;;;;;;;29.18;40.54;99830.47;4408574;32;20088;-75
2021/07/04 06:32:35;;;;;;;7.07;4.40;;;;;;;29.23;40.75;99843.19;4410488;32;20604;-75
2021/07/04 06:35:01;;;;;;;7.87;3.97;;;;;;;29.05;40.72;99835.78;4409020;32;20328;-74
2021/07/04 06:37:27;;;;;;;5.87;3.83;;;;;;;28.93;41.22;99830.41;4412571;32;20022;-75
2021/07/04 06:39:52;;;;;;;9.75;4.10;;;;;;;28.92;41.27;99823.06;4412292;32;20095;-76
2021/07/04 06:42:18;;;;;;;8.68;4.40;;;;;;;29.24;40.93;99824.44;4407516;32;20029;-74
2021/07/04 06:44:44;;;;;;;6.60;4.22;;;;;;;29.36;40.16;99813.91;4408775;32;20038;-76
2021/07/04 06:47:09;;;;;;;7.68;4.25;;;;;;;29.57;40.08;99820.13;4409015;32;20449;-75
2021/07/04 06:49:35;;;;;;;8.20;4.97;;;;;;;29.79;40.06;99819.91;4410693;32;20085;-76
2021/07/04 06:52:01;;;;;;;7.60;5.35;;;;;;;29.74;39.98;99820.94;4408077;32;20120;-75
2021/07/04 06:54:27;;;;;;;9.07;5.62;;;;;;;29.90;39.40;99815.75;4410793;32;20030;-74
2021/07/04 06:56:52;;;;;;;9.90;7.07;;;;;;;29.94;39.34;99816.13;4412242;32;20069;-76
2021/07/04 06:59:18;;;;;;;11.20;6.65;;;;;;;29.91;39.55;99814.41;4409325;32;20073;-74
2021/07/04 07:01:44;;;;;;;12.25;7.03;;;;;;;29.84;39.09;99816.00;4406204;32;20414;-76
2021/07/04 07:04:11;;;;;;;10.57;7.95;;;;;;;30.10;38.92;99809.53;4412391;32;20091;-77
2021/07/04 07:06:36;;;;;;;10.13;7.80;;;;;;;29.54;39.45;99813.34;4411282;32;20074;-76
2021/07/04 07:09:02;;;;;;;14.10;8.68;;;;;;;29.93;39.00;99821.16;4411687;32;20561;-75
2021/07/04 07:11:28;;;;;;;12.60;8.98;;;;;;;29.62;39.63;99811.19;4402510;32;20442;-76
2021/07/04 07:13:54;;;;;;;13.13;8.82;;;;;;;29.62;39.33;99813.31;4412749;32;20397;-76
2021/07/04 07:16:19;;;;;;;14.45;8.50;;;;;;;29.56;39.91;99806.97;4413493;32;20038;-75
2021/07/04 07:18:45;;;;;;;12.63;8.50;;;;;;;29.78;39.63;99814.72;4413132;32;20397;-75
2021/07/04 07:21:10;;;;;;;12.43;8.52;;;;;;;30.08;39.31;99809.38;4412422;32;20464;-76
2021/07/04 07:23:36;;;;;;;13.82;8.65;;;;;;;30.51;38.31;99808.69;4410656;32;20377;-73
2021/07/04 07:26:02;;;;;;;15.73;9.23;;;;;;;30.49;38.01;99817.22;4411132;32;20113;-74
2021/07/04 07:28:28;;;;;;;14.20;8.40;;;;;;;30.94;37.49;99807.16;4414610;32;20038;-75
2021/07/04 07:30:54;;;;;;;14.98;8.48;;;;;;;31.46;36.76;99816.44;4411176;32;20037;-73
2021/07/04 07:33:19;;;;;;;10.18;7.22;;;;;;;31.49;36.71;99816.03;4412424;32;20070;-74
2021/07/04 07:35:45;;;;;;;10.75;6.82;;;;;;;31.91;35.71;99819.34;4415170;32;20092;-74
2021/07/04 07:38:11;;;;;;;11.98;7.32;;;;;;;31.81;35.47;99823.63;4414347;32;20056;-75
2021/07/04 07:40:37;;;;;;;11.43;7.50;;;;;;;31.46;36.12;99825.97;4410977;32;20107;-74
2021/07/04 07:43:04;;;;;;;10.82;6.68;;;;;;;31.46;36.52;99822.28;4410868;32;20100;-74
2021/07/04 07:45:30;;;;;;;10.77;6.80;;;;;;;31.67;35.90;99823.28;4413684;32;20064;-75
2021/07/04 07:47:56;;;;;;;11.63;7.00;;;;;;;31.42;36.50;99822.72;4415225;32;20061;-74
2021/07/04 07:50:21;;;;;;;11.07;7.32;;;;;;;31.14;37.40;99822.56;4413558;32;20074;-76
2021/07/04 07:52:47;;;;;;;10.05;7.47;;;;;;;30.42;38.64;99823.13;4411794;32;20093;-75
2021/07/04 07:55:13;;;;;;;12.30;7.32;;;;;;;30.05;39.13;99827.97;4412718;32;20107;-74
2021/07/04 07:57:40;;;;;;;12.55;8.20;;;;;;;30.06;39.51;99825.87;4411314;32;20069;-75
2021/07/04 08:00:10;;;;;;;13.15;8.10;;;;;;;29.70;39.82;99816.94;4411575;32;20743;-76
2021/07/04 08:02:36;;;;;;;14.65;8.60;;;;;;;30.03;39.45;99824.16;4409849;32;20154;-75
2021/07/04 08:05:03;;;;;;;10.10;7.35;;;;;;;29.97;39.71;99818.56;4415171;32;20093;-76
2021/07/04 08:07:29;;;;;;;11.50;8.05;;;;;;;30.26;39.33;99810.94;4412182;32;20029;-75
2021/07/04 08:09:55;;;;;;;13.45;7.35;;;;;;;30.53;37.89;99813.91;4413354;32;20923;-75
2021/07/04 08:12:21;;;;;;;11.32;7.50;;;;;;;30.84;36.96;99809.25;4414299;32;20442;-74
2021/07/04 08:14:47;;;;;;;9.50;7.30;;;;;;;31.02;37.45;99813.66;4414081;32;20041;-76
2021/07/04 08:17:13;;;;;;;10.00;7.10;;;;;;;31.10;36.50;99805.56;4410338;32;20053;-74
2021/07/04 08:19:38;;;;;;;9.25;6.60;;;;;;;31.33;36.29;99808.91;4411902;32;20064;-76
2021/07/04 08:22:04;;;;;;;9.82;6.82;;;;;;;31.44;36.19;99799.62;4411387;32;20446;-76
2021/07/04 08:24:30;;;;;;;9.20;6.87;;;;;;;31.55;35.47;99796.13;4413316;32;20034;-76
2021/07/04 08:26:56;;;;;;;8.52;6.57;;;;;;;31.76;35.58;99810.13;4413818;32;20088;-76
2021/07/04 08:29:22;;;;;;;14.38;8.15;;;;;;;31.50;35.81;99800.09;4412228;32;20077;-76
2021/07/04 08:31:48;;;;;;;9.02;6.65;;;;;;;31.62;35.20;99806.88;4407986;32;20073;-75
2021/07/04 08:34:14;;;;;;;10.02;6.80;;;;;;;31.77;35.11;99797.09;4413492;32;20156;-75
2021/07/04 08:36:40;;;;;;;10.32;7.32;;;;;;;31.94;35.44;99797.03;4414034;32;20123;-75
2021/07/04 08:39:06;;;;;;;10.57;6.68;;;;;;;32.34;34.58;99800.12;4414133;32;20370;-74
2021/07/04 08:41:33;;;;;;;13.18;7.07;;;;;;;32.68;34.46;99799.78;4411872;32;20092;-75
2021/07/04 08:44:08;;;;;;;12.23;7.57;;;;;;;32.70;34.86;99802.09;4411500;32;20078;-75
2021/07/04 08:46:39;;;;;;;14.75;7.22;;;;;;;32.98;34.16;99801.28;4409676;32;20026;-75
2021/07/04 08:49:05;;;;;;;13.20;6.57;;;;;;;32.90;34.12;99794.84;4413365;32;20058;-75
2021/07/04 08:51:31;;;;;;;8.68;6.00;;;;;;;32.78;34.30;99796.84;4409213;32;20064;-75
2021/07/04 08:53:57;;;;;;;11.82;5.80;;;;;;;32.88;33.35;99789.63;4413902;32;20050;-75
2021/07/04 08:56:23;;;;;;;9.05;4.95;;;;;;;33.39;32.64;99791.94;4414347;32;20026;-74
2021/07/04 08:58:48;;;;;;;6.43;5.00;;;;;;;33.49;31.59;99794.78;4411310;32;20143;-74
2021/07/04 09:01:18;;;;;;;6.93;4.87;;;;;;;33.41;31.55;99794.25;4411531;32;20418;-74
2021/07/04 09:03:49;;;;;;;7.30;4.43;;;;;;;33.73;31.29;99790.66;4409627;32;20046;-74
2021/07/04 09:06:39;;;;;;;7.75;4.32;;;;;;;33.61;31.60;99789.81;4414000;32;20465;-75
2021/07/04 09:09:26;;;;;;;6.07;4.18;;;;;;;33.89;31.33;99783.84;4405272;32;20041;-74
2021/07/04 09:17:11;;;;;;;5.37;3.80;;;;;;;33.30;32.33;99768.62;3986637;32;15021882;-76
2021/07/04 09:19:40;;;;;;;6.12;4.00;;;;;;;33.30;32.33;99768.62;4439052;32;20466;-75
2021/07/04 09:22:09;;;;;;;5.70;3.55;;;;;;;32.78;33.03;99761.88;4437676;32;20041;-75
2021/07/04 09:24:37;;;;;;;4.72;3.28;;;;;;;32.44;32.90;99757.19;4437361;32;20125;-75
2021/07/04 09:27:04;;;;;;;6.95;3.22;;;;;;;32.30;33.35;99750.28;4441051;32;20092;-74
2021/07/04 09:29:51;;;;;;;4.55;3.00;;;;;;;32.02;33.90;99754.75;4435681;32;20069;-75
2021/07/04 09:37:42;;;;;;;7.65;3.20;;;;;;;33.39;32.53;99756.16;3985772;32;15023865;-75
2021/07/04 09:45:56;;;;;;;4.62;2.60;;;;;;;35.56;29.14;99739.34;3983260;32;15026208;-73
2021/07/04 09:51:22;;;;;;;6.47;3.28;;;;;;;35.92;28.65;99739.44;3983022;32;15022725;-75
2021/07/04 09:53:51;;;;;;;5.75;3.30;;;;;;;35.92;28.65;99739.44;4436741;32;20417;-76
2021/07/04 09:58:55;;;;;;;6.07;3.33;;;;;;;35.18;29.29;99731.09;3995379;31;15016136;-75
2021/07/04 10:01:39;;;;;;;8.82;3.50;;;;;;;35.24;29.25;99731.44;4452452;32;20128;-74
2021/07/04 10:04:08;;;;;;;5.15;3.00;;;;;;;35.66;28.60;99729.03;4443058;32;20067;-76
2021/07/04 10:06:50;;;;;;;4.93;2.87;;;;;;;35.19;29.04;99720.91;4446708;32;21430;-75
2021/07/04 10:09:18;;;;;;;4.70;2.80;;;;;;;35.54;28.33;99731.22;4443071;32;20667;-75
2021/07/04 10:11:44;;;;;;;7.12;3.97;;;;;;;35.26;28.32;99726.50;4446938;32;20056;-75
2021/07/04 10:14:10;;;;;;;6.03;2.80;;;;;;;35.11;29.04;99726.22;4443221;32;20077;-74
2021/07/04 10:16:40;;;;;;;4.25;2.70;;;;;;;34.67;28.87;99718.28;4441616;32;20073;-74
2021/07/04 10:19:06;;;;;;;8.90;3.00;;;;;;;34.12;29.86;99721.88;4442880;32;20048;-76
2021/07/04 10:21:34;;;;;;;6.87;2.87;;;;;;;33.55;30.86;99720.16;4442135;32;20029;-76
2021/07/04 10:24:00;;;;;;;8.75;3.17;;;;;;;34.00;30.39;99707.25;4446235;32;20068;-73
2021/07/04 10:26:27;;;;;;;4.82;2.87;;;;;;;34.22;30.35;99713.78;4442176;32;20034;-74
2021/07/04 10:28:58;;;;;;;5.22;3.03;;;;;;;34.47;29.61;99710.38;4447146;32;20048;-73
2021/07/04 10:31:32;;;;;;;5.43;2.53;;;;;;;35.12;29.01;99708.03;4443221;32;20076;-73
2021/07/04 10:34:15;;;;;;;4.53;2.50;;;;;;;35.45;27.98;99711.63;4442504;32;20084;-75
2021/07/04 10:37:01;;;;;;;5.18;2.62;;;;;;;35.71;27.35;99692.72;4445502;32;20101;-75
2021/07/04 10:39:29;;;;;;;5.47;2.60;;;;;;;35.23;28.12;99701.44;4442946;32;20057;-74
2021/07/04 10:42:02;;;;;;;6.62;3.15;;;;;;;34.59;29.19;99697.28;4445652;32;20401;-72
2021/07/04 10:44:41;;;;;;;9.82;4.68;;;;;;;33.66;30.54;99704.09;4447024;32;20122;-73
2021/07/04 10:49:48;;;;;;;8.23;3.60;;;;;;;31.91;36.97;99697.13;3981631;31;15711612;-75
2021/07/04 10:54:53;;;;;;;6.62;3.75;;;;;;;32.56;34.92;99688.19;3955777;32;15723524;-77
2021/07/04 11:02:50;;;;;;;22.45;8.40;;;;;;;34.09;31.88;99685.19;3969313;32;15022883;-78
2021/07/04 11:15:45;;;;;;;12.53;4.40;;;;;;;34.29;29.98;99683.59;4001398;31;15014240;-76
2021/07/04 11:18:14;;;;;;;9.05;4.90;;;;;;;34.29;29.98;99683.59;4454157;32;20687;-75
2021/07/04 11:28:34;;;;;;;8.45;5.10;;;;;;;34.30;29.99;99665.44;3987791;32;15022757;-75
2021/07/04 11:46:44;;;;;;;6.72;3.70;;;;;;;34.13;30.13;99644.56;3980195;32;15022527;-76
2021/07/04 11:49:13;;;;;;;4.25;3.55;;;;;;;34.13;30.13;99644.56;4433102;32;20038;-78
2021/07/04 11:54:27;;;;;;;8.02;3.60;;;;;;;34.50;29.71;99647.72;4004920;31;15016248;-75
2021/07/04 11:56:55;;;;;;;8.68;3.95;;;;;;;34.50;29.71;99647.72;4453812;32;20028;-73
2021/07/04 11:59:23;;;;;;;5.93;4.22;;;;;;;34.01;30.19;99646.69;4463145;32;20041;-77
2021/07/04 12:04:37;;;;;;;12.82;5.82;;;;;;;36.23;27.34;99642.41;3982857;32;15029913;-76
2021/07/04 12:07:06;;;;;;;5.12;3.22;;;;;;;37.11;25.57;99634.87;4439227;32;20116;-76
2021/07/04 12:09:34;;;;;;;6.50;3.62;;;;;;;37.59;25.07;99634.53;4437758;32;20093;-76
2021/07/04 12:12:00;;;;;;;5.80;2.85;;;;;;;38.28;24.61;99633.69;4441922;32;20050;-75
2021/07/04 12:14:36;;;;;;;3.20;2.90;;;;;;;37.79;24.67;99638.53;4440383;32;20456;-74
2021/07/04 12:17:24;;;;;;;5.10;2.70;;;;;;;37.61;24.61;99622.91;4440484;32;20077;-74
2021/07/04 12:19:57;;;;;;;6.72;2.65;;;;;;;37.63;24.70;99626.69;4439546;32;20060;-75
2021/07/04 12:22:28;;;;;;;6.50;2.93;;;;;;;37.94;24.38;99629.78;4431460;32;20431;-77
2021/07/04 12:24:54;;;;;;;4.32;2.87;;;;;;;38.69;23.83;99621.72;4439193;32;20149;-76
2021/07/04 12:27:39;;;;;;;3.40;2.40;;;;;;;38.05;24.30;99612.66;4440558;32;20482;-76
2021/07/04 12:32:53;;;;;;;4.50;2.20;;;;;;;37.44;25.43;99609.56;3981124;32;15022579;-75
2021/07/04 12:35:44;;;;;;;6.97;2.97;;;;;;;37.44;25.43;99609.56;4433801;32;20067;-72
2021/07/04 12:43:35;;;;;;;7.47;3.40;;;;;;;34.97;31.02;99600.38;3989461;32;15024172;-76
2021/07/04 12:46:04;;;;;;;10.60;4.20;;;;;;;34.97;31.02;99600.38;4436599;32;20029;-77
2021/07/04 12:48:40;;;;;;;11.38;3.25;;;;;;;32.77;37.93;99603.00;4440633;32;20046;-75
2021/07/04 12:51:07;;;;;;;4.25;2.37;;;;;;;32.64;43.51;99598.44;4438687;32;20332;-73
2021/07/04 12:53:43;;;;;;;6.15;2.87;;;;;;;32.37;39.79;99589.22;4438772;32;20402;-73